Hornitos, CA (95325)

8:40 PM PDT on August 29, 2014 (GMT -0700)
CATHEY'S VALLEY | Change Station
CLOSE
Current Station
Personal Weather Station
Location: Catheys Valley, CA
Elevation: 2099 ft
Nearby Weather Stations

Elev 2099 ft 37.47 °N, 120.08 °W | Updated 9 minutes ago

Clear
Clear
81.0 °F
Feels Like 80 °F
N
6.0
Wind Variable Wind from NNW

Today
High -- | Low -- °F
--% Chance of Precip.
Yesterday
High -- | Low -- °F
Precip. -- in
6:28 AM 7:34 PM
Waxing Crescent, 18% visible
Pressure 29.83 in
Visibility 10.0 miles
Clouds Clear
Heat Index 80 °F
Dew Point 50 °F
Humidity 33%
Rainfall -999.00 in
Snow Depth Not available.
UV 0 out of 12
Pollen 9.50 out of 12
Air Quality Not available.
Flu Activity Not available.
METAR KMER 300335Z AUTO 36005KT 10SM CLR 26/14 A2983 RMK AO1

More Conditions Fewer Conditions

Pressure 29.83 in
Visibility 10.0 miles
Clouds Clear
Heat Index 80 °F
Dew Point 50 °F
Humidity 33%
Rainfall -999.00 in
Snow Depth Not available.
UV 0 out of 12
Pollen 9.50 out of 12
Air Quality Not available.
Flu Activity Not available.
METAR KMER 300335Z AUTO 36005KT 10SM CLR 26/14 A2983 RMK AO1

More Conditions Fewer Conditions

10-Day Weather Forecast

Almanac

Astronomy

Aug. 29, 2014 Rise Set
Actual Time 6:28 AM PDT 7:34 PM PDT
Civil Twilight 6:01 AM PDT 8:00 PM PDT
Nautical Twilight 5:29 AM PDT 8:32 PM PDT
Astronomical Twilight 4:56 AM PDT 9:06 PM PDT
Moon 10:17 AM PDT (8/29) 9:40 PM PDT (8/29)
Length of Visible Light 13h 59m
Length of Day
13h 05m
Tomorrow will be 2m 17s shorter.
Waxing Crescent, 18% of the Moon is Illuminated
Today
Waxing Crescent
Sep 2
First Quarter
Sep 8
Full
Sep 15
Last Quarter
Sep 24
New

Today's Extremes

State Highs State Lows

Community

WunderPhotos

Upload Photos

1,748,437 photos uploaded!

Nearby

Snow Depth

Station Depth Elevation
Leavitt Meadows 0 in 7200 ft
Summit Meadow 0 in 9122 ft
Echo Peak 0 in 7800 ft
Hagan's Meadow 0 in 8000 ft
CSS Lab 2 in 6900 ft

Earthquake Activity

City Distance Mag. Time & Date
Ridgemark, California 83 miles 3.5 4:32 PM PDT
2014-08-29
Ridgemark, California 83 miles 3.0 2:44 PM PDT
2014-08-29
Orange Cove, California 81 miles 2.5 7:48 AM PDT
2014-08-29
Minimum magnitude displayed is 2.5.

Coastal Water Temperatures

Place Temperature
No Stations Reporting

Nearby Weather Stations